sensor_id;sensor_type;location;lat;lon;timestamp;temperature;humidity
11126;DHT22;5617;54.046;10.676;2022-08-25T00:01:52;20.10;99.90
11126;DHT22;5617;54.046;10.676;2022-08-25T00:04:02;20.10;99.90
11126;DHT22;5617;54.046;10.676;2022-08-25T00:06:11;20.00;99.90
11126;DHT22;5617;54.046;10.676;2022-08-25T00:08:20;20.00;99.90
11126;DHT22;5617;54.046;10.676;2022-08-25T00:10:28;20.00;99.90
11126;DHT22;5617;54.046;10.676;2022-08-25T00:12:36;20.00;99.90
11126;DHT22;5617;54.046;10.676;2022-08-25T00:14:43;19.90;99.90
11126;DHT22;5617;54.046;10.676;2022-08-25T00:16:51;20.00;99.90
11126;DHT22;5617;54.046;10.676;2022-08-25T00:19:05;19.90;99.90
11126;DHT22;5617;54.046;10.676;2022-08-25T00:21:14;19.90;99.90
11126;DHT22;5617;54.046;10.676;2022-08-25T00:23:23;19.90;99.90
11126;DHT22;5617;54.046;10.676;2022-08-25T00:25:31;19.90;99.90
11126;DHT22;5617;54.046;10.676;2022-08-25T00:27:38;19.90;99.90
11126;DHT22;5617;54.046;10.676;2022-08-25T00:29:46;19.90;99.90
11126;DHT22;5617;54.046;10.676;2022-08-25T00:31:54;19.80;99.90
11126;DHT22;5617;54.046;10.676;2022-08-25T00:34:03;19.80;99.90
11126;DHT22;5617;54.046;10.676;2022-08-25T00:36:13;19.80;99.90
11126;DHT22;5617;54.046;10.676;2022-08-25T00:38:21;19.80;99.90
11126;DHT22;5617;54.046;10.676;2022-08-25T00:40:30;19.80;99.90
11126;DHT22;5617;54.046;10.676;2022-08-25T00:42:38;19.80;99.90
11126;DHT22;5617;54.046;10.676;2022-08-25T00:44:46;19.80;99.90
11126;DHT22;5617;54.046;10.676;2022-08-25T00:46:56;19.80;99.90
11126;DHT22;5617;54.046;10.676;2022-08-25T00:49:09;19.80;99.90
11126;DHT22;5617;54.046;10.676;2022-08-25T00:51:23;19.80;99.90
11126;DHT22;5617;54.046;10.676;2022-08-25T00:53:31;19.70;99.90
11126;DHT22;5617;54.046;10.676;2022-08-25T00:55:40;19.80;99.90
11126;DHT22;5617;54.046;10.676;2022-08-25T00:57:51;19.80;99.90
11126;DHT22;5617;54.046;10.676;2022-08-25T01:00:07;19.80;99.90
11126;DHT22;5617;54.046;10.676;2022-08-25T01:02:16;19.80;99.90
11126;DHT22;5617;54.046;10.676;2022-08-25T01:04:23;19.70;99.90
11126;DHT22;5617;54.046;10.676;2022-08-25T01:06:33;19.70;99.90
11126;DHT22;5617;54.046;10.676;2022-08-25T01:08:43;19.70;99.90
11126;DHT22;5617;54.046;10.676;2022-08-25T01:10:52;19.70;99.90
11126;DHT22;5617;54.046;10.676;2022-08-25T01:13:03;19.70;99.90
11126;DHT22;5617;54.046;10.676;2022-08-25T01:15:13;19.70;99.90
11126;DHT22;5617;54.046;10.676;2022-08-25T01:17:22;19.70;99.90
11126;DHT22;5617;54.046;10.676;2022-08-25T01:19:33;19.70;99.90
11126;DHT22;5617;54.046;10.676;2022-08-25T01:21:44;19.70;99.90
11126;DHT22;5617;54.046;10.676;2022-08-25T01:23:52;19.60;99.90
11126;DHT22;5617;54.046;10.676;2022-08-25T01:26:04;19.60;99.90
11126;DHT22;5617;54.046;10.676;2022-08-25T01:28:13;19.60;99.90
11126;DHT22;5617;54.046;10.676;2022-08-25T01:30:25;19.60;99.90
11126;DHT22;5617;54.046;10.676;2022-08-25T01:32:33;19.60;99.90
11126;DHT22;5617;54.046;10.676;2022-08-25T01:34:44;19.60;99.90
11126;DHT22;5617;54.046;10.676;2022-08-25T01:36:54;19.50;99.90
11126;DHT22;5617;54.046;10.676;2022-08-25T01:39:03;19.50;99.90
11126;DHT22;5617;54.046;10.676;2022-08-25T01:41:11;19.50;99.90
11126;DHT22;5617;54.046;10.676;2022-08-25T01:43:26;19.40;99.90
11126;DHT22;5617;54.046;10.676;2022-08-25T01:45:39;19.40;99.90
11126;DHT22;5617;54.046;10.676;2022-08-25T01:47:48;19.40;99.90
11126;DHT22;5617;54.046;10.676;2022-08-25T01:49:55;19.40;99.90
11126;DHT22;5617;54.046;10.676;2022-08-25T01:52:11;19.40;99.90
11126;DHT22;5617;54.046;10.676;2022-08-25T01:54:19;19.40;99.90
11126;DHT22;5617;54.046;10.676;2022-08-25T01:56:26;19.40;99.90
11126;DHT22;5617;54.046;10.676;2022-08-25T01:58:36;19.40;99.90
11126;DHT22;5617;54.046;10.676;2022-08-25T02:00:45;19.40;99.90
11126;DHT22;5617;54.046;10.676;2022-08-25T02:03:23;19.30;99.90
11126;DHT22;5617;54.046;10.676;2022-08-25T02:05:51;19.30;99.90
11126;DHT22;5617;54.046;10.676;2022-08-25T02:08:01;19.30;99.90
11126;DHT22;5617;54.046;10.676;2022-08-25T02:10:10;19.30;99.90
11126;DHT22;5617;54.046;10.676;2022-08-25T02:12:18;19.30;99.90
11126;DHT22;5617;54.046;10.676;2022-08-25T02:14:27;19.30;99.90
11126;DHT22;5617;54.046;10.676;2022-08-25T02:16:37;19.30;99.90
11126;DHT22;5617;54.046;10.676;2022-08-25T02:18:45;19.30;99.90
11126;DHT22;5617;54.046;10.676;2022-08-25T02:20:53;19.30;99.90
11126;DHT22;5617;54.046;10.676;2022-08-25T02:23:02;19.30;99.90
11126;DHT22;5617;54.046;10.676;2022-08-25T02:25:10;19.30;99.90
11126;DHT22;5617;54.046;10.676;2022-08-25T02:27:18;19.30;99.90
11126;DHT22;5617;54.046;10.676;2022-08-25T02:29:25;19.30;99.90
11126;DHT22;5617;54.046;10.676;2022-08-25T02:31:33;19.30;99.90
11126;DHT22;5617;54.046;10.676;2022-08-25T02:33:42;19.30;99.90
11126;DHT22;5617;54.046;10.676;2022-08-25T02:35:49;19.30;99.90
11126;DHT22;5617;54.046;10.676;2022-08-25T02:37:57;19.30;99.90
11126;DHT22;5617;54.046;10.676;2022-08-25T02:40:08;19.30;99.90
11126;DHT22;5617;54.046;10.676;2022-08-25T02:42:15;19.30;99.90
11126;DHT22;5617;54.046;10.676;2022-08-25T02:44:23;19.30;99.90
11126;DHT22;5617;54.046;10.676;2022-08-25T02:46:30;19.30;99.90
11126;DHT22;5617;54.046;10.676;2022-08-25T02:48:38;19.30;99.90
11126;DHT22;5617;54.046;10.676;2022-08-25T02:50:48;19.30;99.90
11126;DHT22;5617;54.046;10.676;2022-08-25T02:52:56;19.30;99.90
11126;DHT22;5617;54.046;10.676;2022-08-25T02:55:19;19.30;99.90
11126;DHT22;5617;54.046;10.676;2022-08-25T02:57:27;19.40;99.90
11126;DHT22;5617;54.046;10.676;2022-08-25T02:59:34;19.30;99.90
11126;DHT22;5617;54.046;10.676;2022-08-25T03:01:42;19.40;99.90
11126;DHT22;5617;54.046;10.676;2022-08-25T03:03:50;19.30;99.90
11126;DHT22;5617;54.046;10.676;2022-08-25T03:05:58;19.30;99.90
11126;DHT22;5617;54.046;10.676;2022-08-25T03:08:07;19.30;99.90
11126;DHT22;5617;54.046;10.676;2022-08-25T03:10:17;19.30;99.90
11126;DHT22;5617;54.046;10.676;2022-08-25T03:12:26;19.50;99.90
11126;DHT22;5617;54.046;10.676;2022-08-25T03:14:34;19.40;99.90
11126;DHT22;5617;54.046;10.676;2022-08-25T03:16:42;19.40;99.90
11126;DHT22;5617;54.046;10.676;2022-08-25T03:18:55;19.50;99.90
11126;DHT22;5617;54.046;10.676;2022-08-25T03:21:03;19.50;99.90
11126;DHT22;5617;54.046;10.676;2022-08-25T03:23:11;19.50;99.90
11126;DHT22;5617;54.046;10.676;2022-08-25T03:25:21;19.60;99.90
11126;DHT22;5617;54.046;10.676;2022-08-25T03:27:48;19.60;99.90
11126;DHT22;5617;54.046;10.676;2022-08-25T03:29:57;19.60;99.90
11126;DHT22;5617;54.046;10.676;2022-08-25T03:32:05;19.60;99.90
11126;DHT22;5617;54.046;10.676;2022-08-25T03:34:14;19.70;99.90
11126;DHT22;5617;54.046;10.676;2022-08-25T03:36:23;19.70;99.90
11126;DHT22;5617;54.046;10.676;2022-08-25T03:38:32;19.70;99.90
11126;DHT22;5617;54.046;10.676;2022-08-25T03:40:40;19.70;99.90
11126;DHT22;5617;54.046;10.676;2022-08-25T03:42:49;19.70;99.90
11126;DHT22;5617;54.046;10.676;2022-08-25T03:44:56;19.70;99.90
11126;DHT22;5617;54.046;10.676;2022-08-25T03:47:04;19.80;99.90
11126;DHT22;5617;54.046;10.676;2022-08-25T03:49:15;19.80;99.90
11126;DHT22;5617;54.046;10.676;2022-08-25T03:51:25;19.70;99.90
11126;DHT22;5617;54.046;10.676;2022-08-25T03:53:33;19.80;99.90
11126;DHT22;5617;54.046;10.676;2022-08-25T03:55:40;19.80;99.90
11126;DHT22;5617;54.046;10.676;2022-08-25T03:57:50;19.80;99.90
11126;DHT22;5617;54.046;10.676;2022-08-25T03:59:57;19.80;99.90
11126;DHT22;5617;54.046;10.676;2022-08-25T04:02:05;19.80;99.90
11126;DHT22;5617;54.046;10.676;2022-08-25T04:04:14;19.90;99.90
11126;DHT22;5617;54.046;10.676;2022-08-25T04:06:21;19.90;99.90
11126;DHT22;5617;54.046;10.676;2022-08-25T04:08:29;19.80;99.90
11126;DHT22;5617;54.046;10.676;2022-08-25T04:10:37;19.90;99.90
11126;DHT22;5617;54.046;10.676;2022-08-25T04:12:44;19.90;99.90
11126;DHT22;5617;54.046;10.676;2022-08-25T04:14:53;19.90;99.90
11126;DHT22;5617;54.046;10.676;2022-08-25T04:17:02;19.90;99.90
11126;DHT22;5617;54.046;10.676;2022-08-25T04:19:10;19.90;99.90
11126;DHT22;5617;54.046;10.676;2022-08-25T04:21:19;19.90;99.90
11126;DHT22;5617;54.046;10.676;2022-08-25T04:23:27;19.90;99.90
11126;DHT22;5617;54.046;10.676;2022-08-25T04:25:38;19.90;99.90
11126;DHT22;5617;54.046;10.676;2022-08-25T04:27:47;19.90;99.90
11126;DHT22;5617;54.046;10.676;2022-08-25T04:29:56;19.90;99.90
11126;DHT22;5617;54.046;10.676;2022-08-25T04:32:03;19.90;99.90
11126;DHT22;5617;54.046;10.676;2022-08-25T04:34:13;19.90;99.90
11126;DHT22;5617;54.046;10.676;2022-08-25T04:36:20;19.90;99.90
11126;DHT22;5617;54.046;10.676;2022-08-25T04:38:28;19.90;99.90
11126;DHT22;5617;54.046;10.676;2022-08-25T04:40:36;19.90;99.90
11126;DHT22;5617;54.046;10.676;2022-08-25T04:42:43;19.90;99.90
11126;DHT22;5617;54.046;10.676;2022-08-25T04:44:51;19.90;99.90
11126;DHT22;5617;54.046;10.676;2022-08-25T04:47:00;19.80;99.90
11126;DHT22;5617;54.046;10.676;2022-08-25T04:49:08;19.80;99.90
11126;DHT22;5617;54.046;10.676;2022-08-25T04:51:18;19.90;99.90
11126;DHT22;5617;54.046;10.676;2022-08-25T04:53:26;19.90;99.90
11126;DHT22;5617;54.046;10.676;2022-08-25T04:55:39;19.80;99.90
11126;DHT22;5617;54.046;10.676;2022-08-25T04:57:47;19.80;99.90
11126;DHT22;5617;54.046;10.676;2022-08-25T04:59:54;19.70;99.90
11126;DHT22;5617;54.046;10.676;2022-08-25T05:02:03;19.60;99.90
11126;DHT22;5617;54.046;10.676;2022-08-25T05:04:16;19.60;99.90
11126;DHT22;5617;54.046;10.676;2022-08-25T05:06:26;19.60;99.90
11126;DHT22;5617;54.046;10.676;2022-08-25T05:08:35;19.60;99.90
11126;DHT22;5617;54.046;10.676;2022-08-25T05:10:42;19.50;99.90
11126;DHT22;5617;54.046;10.676;2022-08-25T05:12:50;19.60;99.90
11126;DHT22;5617;54.046;10.676;2022-08-25T05:14:57;19.60;99.90
11126;DHT22;5617;54.046;10.676;2022-08-25T05:17:26;19.60;99.90
11126;DHT22;5617;54.046;10.676;2022-08-25T05:19:34;19.60;99.90
11126;DHT22;5617;54.046;10.676;2022-08-25T05:21:42;19.60;99.90
11126;DHT22;5617;54.046;10.676;2022-08-25T05:23:52;19.60;99.90
11126;DHT22;5617;54.046;10.676;2022-08-25T05:26:07;19.60;99.90
11126;DHT22;5617;54.046;10.676;2022-08-25T05:28:16;19.60;99.90
11126;DHT22;5617;54.046;10.676;2022-08-25T05:30:24;19.60;99.90
11126;DHT22;5617;54.046;10.676;2022-08-25T05:32:32;19.60;99.90
11126;DHT22;5617;54.046;10.676;2022-08-25T05:34:40;19.70;99.90
11126;DHT22;5617;54.046;10.676;2022-08-25T05:36:47;19.70;99.90
11126;DHT22;5617;54.046;10.676;2022-08-25T05:38:56;19.60;99.90
11126;DHT22;5617;54.046;10.676;2022-08-25T05:41:05;19.60;99.90
11126;DHT22;5617;54.046;10.676;2022-08-25T05:43:15;19.70;99.90
11126;DHT22;5617;54.046;10.676;2022-08-25T05:45:23;19.70;99.90
11126;DHT22;5617;54.046;10.676;2022-08-25T05:47:30;19.60;99.90
11126;DHT22;5617;54.046;10.676;2022-08-25T05:49:39;19.70;99.90
11126;DHT22;5617;54.046;10.676;2022-08-25T05:51:48;19.70;99.90
11126;DHT22;5617;54.046;10.676;2022-08-25T05:53:56;19.60;99.90
11126;DHT22;5617;54.046;10.676;2022-08-25T05:56:03;19.60;99.90
11126;DHT22;5617;54.046;10.676;2022-08-25T05:58:11;19.60;99.90
11126;DHT22;5617;54.046;10.676;2022-08-25T06:00:18;19.60;99.90
11126;DHT22;5617;54.046;10.676;2022-08-25T06:02:26;19.60;99.90
11126;DHT22;5617;54.046;10.676;2022-08-25T06:04:50;19.60;99.90
11126;DHT22;5617;54.046;10.676;2022-08-25T06:06:58;19.60;99.90
11126;DHT22;5617;54.046;10.676;2022-08-25T06:09:06;19.60;99.90
11126;DHT22;5617;54.046;10.676;2022-08-25T06:11:15;19.60;99.90
11126;DHT22;5617;54.046;10.676;2022-08-25T06:13:22;19.70;99.90
11126;DHT22;5617;54.046;10.676;2022-08-25T06:15:30;19.70;99.90
11126;DHT22;5617;54.046;10.676;2022-08-25T06:17:39;19.70;99.90
11126;DHT22;5617;54.046;10.676;2022-08-25T06:19:48;19.60;99.90
11126;DHT22;5617;54.046;10.676;2022-08-25T06:21:57;19.70;99.90
11126;DHT22;5617;54.046;10.676;2022-08-25T06:24:05;19.70;99.90
11126;DHT22;5617;54.046;10.676;2022-08-25T06:26:12;19.70;99.90
11126;DHT22;5617;54.046;10.676;2022-08-25T06:28:20;19.80;99.90
11126;DHT22;5617;54.046;10.676;2022-08-25T06:30:28;19.80;99.90
11126;DHT22;5617;54.046;10.676;2022-08-25T06:32:38;19.80;99.90
11126;DHT22;5617;54.046;10.676;2022-08-25T06:34:46;19.90;99.90
11126;DHT22;5617;54.046;10.676;2022-08-25T06:36:53;20.00;99.90
11126;DHT22;5617;54.046;10.676;2022-08-25T06:39:02;20.00;99.90
11126;DHT22;5617;54.046;10.676;2022-08-25T06:41:10;20.00;99.90
11126;DHT22;5617;54.046;10.676;2022-08-25T06:43:19;20.10;99.90
11126;DHT22;5617;54.046;10.676;2022-08-25T06:45:27;20.10;99.90
11126;DHT22;5617;54.046;10.676;2022-08-25T06:47:34;20.10;99.90
11126;DHT22;5617;54.046;10.676;2022-08-25T06:49:42;20.20;99.90
11126;DHT22;5617;54.046;10.676;2022-08-25T06:51:49;20.20;99.90
11126;DHT22;5617;54.046;10.676;2022-08-25T06:53:57;20.30;99.90
11126;DHT22;5617;54.046;10.676;2022-08-25T06:56:06;20.30;99.90
11126;DHT22;5617;54.046;10.676;2022-08-25T06:58:13;20.30;99.90
11126;DHT22;5617;54.046;10.676;2022-08-25T07:00:21;20.40;99.90
11126;DHT22;5617;54.046;10.676;2022-08-25T07:02:29;20.40;99.90
11126;DHT22;5617;54.046;10.676;2022-08-25T07:04:37;20.30;99.90
11126;DHT22;5617;54.046;10.676;2022-08-25T07:06:46;20.40;99.90
11126;DHT22;5617;54.046;10.676;2022-08-25T07:08:54;20.40;99.90
11126;DHT22;5617;54.046;10.676;2022-08-25T07:11:05;20.40;99.90
11126;DHT22;5617;54.046;10.676;2022-08-25T07:13:16;20.50;99.90
11126;DHT22;5617;54.046;10.676;2022-08-25T07:15:23;20.50;99.90
11126;DHT22;5617;54.046;10.676;2022-08-25T07:17:31;20.60;99.90
11126;DHT22;5617;54.046;10.676;2022-08-25T07:19:38;20.50;99.90
11126;DHT22;5617;54.046;10.676;2022-08-25T07:21:49;20.50;99.90
11126;DHT22;5617;54.046;10.676;2022-08-25T07:23:56;20.40;99.90
11126;DHT22;5617;54.046;10.676;2022-08-25T07:26:13;20.40;99.90
11126;DHT22;5617;54.046;10.676;2022-08-25T07:28:22;20.50;99.90
11126;DHT22;5617;54.046;10.676;2022-08-25T07:30:30;20.60;99.90
11126;DHT22;5617;54.046;10.676;2022-08-25T07:32:38;20.50;99.90
11126;DHT22;5617;54.046;10.676;2022-08-25T07:34:45;20.60;99.90
11126;DHT22;5617;54.046;10.676;2022-08-25T07:37:10;20.60;99.90
11126;DHT22;5617;54.046;10.676;2022-08-25T07:39:18;20.70;99.90
11126;DHT22;5617;54.046;10.676;2022-08-25T07:41:27;20.70;99.90
11126;DHT22;5617;54.046;10.676;2022-08-25T07:43:35;20.80;99.90
11126;DHT22;5617;54.046;10.676;2022-08-25T07:45:43;20.90;99.90
11126;DHT22;5617;54.046;10.676;2022-08-25T07:47:51;20.90;99.90
11126;DHT22;5617;54.046;10.676;2022-08-25T07:49:59;21.00;99.90
11126;DHT22;5617;54.046;10.676;2022-08-25T07:52:06;21.10;99.90
11126;DHT22;5617;54.046;10.676;2022-08-25T07:54:15;21.20;99.90
11126;DHT22;5617;54.046;10.676;2022-08-25T07:56:22;21.40;99.90
11126;DHT22;5617;54.046;10.676;2022-08-25T07:58:31;21.40;99.90
11126;DHT22;5617;54.046;10.676;2022-08-25T08:00:39;21.50;99.90
11126;DHT22;5617;54.046;10.676;2022-08-25T08:02:47;21.50;99.90
11126;DHT22;5617;54.046;10.676;2022-08-25T08:04:55;21.50;99.90
11126;DHT22;5617;54.046;10.676;2022-08-25T08:07:03;21.70;99.90
11126;DHT22;5617;54.046;10.676;2022-08-25T08:09:11;21.70;99.90
11126;DHT22;5617;54.046;10.676;2022-08-25T08:11:21;21.70;99.90
11126;DHT22;5617;54.046;10.676;2022-08-25T08:13:33;21.70;99.90
11126;DHT22;5617;54.046;10.676;2022-08-25T08:15:42;21.80;99.90
11126;DHT22;5617;54.046;10.676;2022-08-25T08:17:50;21.90;99.90
11126;DHT22;5617;54.046;10.676;2022-08-25T08:19:58;21.90;99.90
11126;DHT22;5617;54.046;10.676;2022-08-25T08:22:06;21.90;99.90
11126;DHT22;5617;54.046;10.676;2022-08-25T08:24:16;21.90;99.90
11126;DHT22;5617;54.046;10.676;2022-08-25T08:26:24;21.90;99.90
11126;DHT22;5617;54.046;10.676;2022-08-25T08:28:35;22.00;99.90
11126;DHT22;5617;54.046;10.676;2022-08-25T08:30:43;22.20;99.90
11126;DHT22;5617;54.046;10.676;2022-08-25T08:32:50;22.30;99.90
11126;DHT22;5617;54.046;10.676;2022-08-25T08:34:58;22.30;99.90
11126;DHT22;5617;54.046;10.676;2022-08-25T08:37:06;22.30;99.90
11126;DHT22;5617;54.046;10.676;2022-08-25T08:39:14;22.30;99.90
11126;DHT22;5617;54.046;10.676;2022-08-25T08:41:42;22.40;99.90
11126;DHT22;5617;54.046;10.676;2022-08-25T08:44:17;22.40;99.90
11126;DHT22;5617;54.046;10.676;2022-08-25T08:46:32;22.40;99.90
11126;DHT22;5617;54.046;10.676;2022-08-25T08:48:54;22.40;99.90
11126;DHT22;5617;54.046;10.676;2022-08-25T08:51:14;22.40;99.90
11126;DHT22;5617;54.046;10.676;2022-08-25T08:53:28;22.30;99.90
11126;DHT22;5617;54.046;10.676;2022-08-25T08:55:42;22.40;99.90
11126;DHT22;5617;54.046;10.676;2022-08-25T08:57:51;22.30;99.90
11126;DHT22;5617;54.046;10.676;2022-08-25T09:00:05;22.30;99.90
11126;DHT22;5617;54.046;10.676;2022-08-25T09:02:20;22.40;99.90
11126;DHT22;5617;54.046;10.676;2022-08-25T09:04:34;22.40;99.90
11126;DHT22;5617;54.046;10.676;2022-08-25T09:06:46;22.40;99.90
11126;DHT22;5617;54.046;10.676;2022-08-25T09:08:57;22.30;99.90
11126;DHT22;5617;54.046;10.676;2022-08-25T09:11:10;22.30;99.90
11126;DHT22;5617;54.046;10.676;2022-08-25T09:13:26;22.20;99.90
11126;DHT22;5617;54.046;10.676;2022-08-25T09:15:43;22.30;99.90
11126;DHT22;5617;54.046;10.676;2022-08-25T09:18:19;22.40;99.90
11126;DHT22;5617;54.046;10.676;2022-08-25T09:20:42;22.40;99.90
11126;DHT22;5617;54.046;10.676;2022-08-25T09:22:59;22.40;99.90
11126;DHT22;5617;54.046;10.676;2022-08-25T09:25:14;22.30;99.90
11126;DHT22;5617;54.046;10.676;2022-08-25T09:27:30;22.30;99.90
11126;DHT22;5617;54.046;10.676;2022-08-25T09:29:48;22.30;99.90
11126;DHT22;5617;54.046;10.676;2022-08-25T09:32:03;22.40;99.90
11126;DHT22;5617;54.046;10.676;2022-08-25T09:34:16;22.40;99.90
11126;DHT22;5617;54.046;10.676;2022-08-25T09:36:24;22.50;99.90
11126;DHT22;5617;54.046;10.676;2022-08-25T09:38:32;22.70;99.90
11126;DHT22;5617;54.046;10.676;2022-08-25T09:40:43;22.70;99.90
11126;DHT22;5617;54.046;10.676;2022-08-25T09:42:54;22.90;99.90
11126;DHT22;5617;54.046;10.676;2022-08-25T09:45:02;23.00;99.90
11126;DHT22;5617;54.046;10.676;2022-08-25T09:47:24;23.20;99.90
11126;DHT22;5617;54.046;10.676;2022-08-25T09:49:39;23.30;99.90
11126;DHT22;5617;54.046;10.676;2022-08-25T09:51:47;23.40;99.90
11126;DHT22;5617;54.046;10.676;2022-08-25T09:53:56;23.60;99.90
11126;DHT22;5617;54.046;10.676;2022-08-25T09:56:09;23.90;99.90
11126;DHT22;5617;54.046;10.676;2022-08-25T09:58:20;24.00;99.90
11126;DHT22;5617;54.046;10.676;2022-08-25T10:00:29;24.20;99.90
11126;DHT22;5617;54.046;10.676;2022-08-25T10:02:40;24.40;99.90
11126;DHT22;5617;54.046;10.676;2022-08-25T10:04:50;24.60;99.90
11126;DHT22;5617;54.046;10.676;2022-08-25T10:06:59;24.90;99.90
11126;DHT22;5617;54.046;10.676;2022-08-25T10:09:12;25.20;99.90
11126;DHT22;5617;54.046;10.676;2022-08-25T10:11:31;25.20;99.90
11126;DHT22;5617;54.046;10.676;2022-08-25T10:13:42;25.50;99.90
11126;DHT22;5617;54.046;10.676;2022-08-25T10:16:03;25.70;99.90
11126;DHT22;5617;54.046;10.676;2022-08-25T10:18:30;25.80;99.90
11126;DHT22;5617;54.046;10.676;2022-08-25T10:20:38;26.10;99.90
11126;DHT22;5617;54.046;10.676;2022-08-25T10:22:48;26.10;99.90
11126;DHT22;5617;54.046;10.676;2022-08-25T10:24:56;26.30;99.90
11126;DHT22;5617;54.046;10.676;2022-08-25T10:27:13;26.60;99.90
11126;DHT22;5617;54.046;10.676;2022-08-25T10:29:34;26.70;99.90
11126;DHT22;5617;54.046;10.676;2022-08-25T10:31:50;26.50;99.90
11126;DHT22;5617;54.046;10.676;2022-08-25T10:34:11;26.70;99.90
11126;DHT22;5617;54.046;10.676;2022-08-25T10:36:30;26.70;99.90
11126;DHT22;5617;54.046;10.676;2022-08-25T10:38:53;26.90;99.90
11126;DHT22;5617;54.046;10.676;2022-08-25T10:41:19;27.00;99.90
11126;DHT22;5617;54.046;10.676;2022-08-25T10:43:34;27.10;99.90
11126;DHT22;5617;54.046;10.676;2022-08-25T10:45:47;27.10;99.80
11126;DHT22;5617;54.046;10.676;2022-08-25T10:48:11;27.20;99.40
11126;DHT22;5617;54.046;10.676;2022-08-25T10:50:28;27.20;99.00
11126;DHT22;5617;54.046;10.676;2022-08-25T10:52:52;27.20;98.70
11126;DHT22;5617;54.046;10.676;2022-08-25T10:55:14;27.10;99.00
11126;DHT22;5617;54.046;10.676;2022-08-25T10:57:31;27.20;98.50
11126;DHT22;5617;54.046;10.676;2022-08-25T10:59:51;27.10;98.50
11126;DHT22;5617;54.046;10.676;2022-08-25T11:02:29;27.20;98.60
11126;DHT22;5617;54.046;10.676;2022-08-25T11:04:43;27.30;98.20
11126;DHT22;5617;54.046;10.676;2022-08-25T11:06:56;27.40;97.90
11126;DHT22;5617;54.046;10.676;2022-08-25T11:09:07;27.40;98.10
11126;DHT22;5617;54.046;10.676;2022-08-25T11:11:22;27.50;97.70
11126;DHT22;5617;54.046;10.676;2022-08-25T11:13:37;27.50;97.60
11126;DHT22;5617;54.046;10.676;2022-08-25T11:15:51;27.50;97.20
11126;DHT22;5617;54.046;10.676;2022-08-25T11:18:04;27.40;97.10
11126;DHT22;5617;54.046;10.676;2022-08-25T11:20:19;27.40;97.20
11126;DHT22;5617;54.046;10.676;2022-08-25T11:22:32;27.50;97.40
11126;DHT22;5617;54.046;10.676;2022-08-25T11:24:50;27.80;97.10
11126;DHT22;5617;54.046;10.676;2022-08-25T11:26:59;27.60;96.80
11126;DHT22;5617;54.046;10.676;2022-08-25T11:29:12;27.60;96.80
11126;DHT22;5617;54.046;10.676;2022-08-25T11:31:22;27.70;96.80
11126;DHT22;5617;54.046;10.676;2022-08-25T11:33:30;27.70;96.80
11126;DHT22;5617;54.046;10.676;2022-08-25T11:35:42;28.00;96.60
11126;DHT22;5617;54.046;10.676;2022-08-25T11:38:03;28.20;96.60
11126;DHT22;5617;54.046;10.676;2022-08-25T11:40:25;28.20;96.00
11126;DHT22;5617;54.046;10.676;2022-08-25T11:42:46;28.20;96.30
11126;DHT22;5617;54.046;10.676;2022-08-25T11:45:03;28.40;96.00
11126;DHT22;5617;54.046;10.676;2022-08-25T11:49:51;28.60;95.80
11126;DHT22;5617;54.046;10.676;2022-08-25T11:52:02;28.40;95.70
11126;DHT22;5617;54.046;10.676;2022-08-25T11:54:18;28.40;95.80
11126;DHT22;5617;54.046;10.676;2022-08-25T11:56:31;28.50;95.90
11126;DHT22;5617;54.046;10.676;2022-08-25T11:58:42;28.70;95.70
11126;DHT22;5617;54.046;10.676;2022-08-25T12:00:51;28.60;95.30
11126;DHT22;5617;54.046;10.676;2022-08-25T12:02:58;28.50;95.30
11126;DHT22;5617;54.046;10.676;2022-08-25T12:05:09;28.60;95.20
11126;DHT22;5617;54.046;10.676;2022-08-25T12:07:28;28.60;95.10
11126;DHT22;5617;54.046;10.676;2022-08-25T12:10:13;28.60;95.10
11126;DHT22;5617;54.046;10.676;2022-08-25T12:12:29;28.60;95.00
11126;DHT22;5617;54.046;10.676;2022-08-25T12:14:42;28.70;95.20
11126;DHT22;5617;54.046;10.676;2022-08-25T12:17:17;28.70;94.90
11126;DHT22;5617;54.046;10.676;2022-08-25T12:19:46;28.60;94.60
11126;DHT22;5617;54.046;10.676;2022-08-25T12:21:57;28.50;94.60
11126;DHT22;5617;54.046;10.676;2022-08-25T12:24:10;28.40;94.70
11126;DHT22;5617;54.046;10.676;2022-08-25T12:26:28;28.40;94.70
11126;DHT22;5617;54.046;10.676;2022-08-25T12:28:52;28.40;94.70
11126;DHT22;5617;54.046;10.676;2022-08-25T12:31:10;28.30;94.60
11126;DHT22;5617;54.046;10.676;2022-08-25T12:33:27;28.40;94.70
11126;DHT22;5617;54.046;10.676;2022-08-25T12:35:52;28.40;94.70
11126;DHT22;5617;54.046;10.676;2022-08-25T12:38:04;28.50;94.50
11126;DHT22;5617;54.046;10.676;2022-08-25T12:40:22;28.50;94.40
11126;DHT22;5617;54.046;10.676;2022-08-25T12:42:35;28.50;94.40
11126;DHT22;5617;54.046;10.676;2022-08-25T12:44:45;28.50;94.30
11126;DHT22;5617;54.046;10.676;2022-08-25T12:47:05;28.50;94.80
11126;DHT22;5617;54.046;10.676;2022-08-25T12:49:31;28.50;94.50
11126;DHT22;5617;54.046;10.676;2022-08-25T12:51:47;28.30;94.50
11126;DHT22;5617;54.046;10.676;2022-08-25T12:54:00;28.10;94.90
11126;DHT22;5617;54.046;10.676;2022-08-25T12:56:24;28.30;94.90
11126;DHT22;5617;54.046;10.676;2022-08-25T12:58:46;28.40;94.80
11126;DHT22;5617;54.046;10.676;2022-08-25T13:01:09;28.40;95.00
11126;DHT22;5617;54.046;10.676;2022-08-25T13:03:39;28.40;95.10
11126;DHT22;5617;54.046;10.676;2022-08-25T13:06:11;28.60;95.10
11126;DHT22;5617;54.046;10.676;2022-08-25T13:08:33;28.60;94.90
11126;DHT22;5617;54.046;10.676;2022-08-25T13:10:47;28.70;95.30
11126;DHT22;5617;54.046;10.676;2022-08-25T13:13:00;28.70;95.00
11126;DHT22;5617;54.046;10.676;2022-08-25T13:15:15;28.70;94.90
11126;DHT22;5617;54.046;10.676;2022-08-25T13:17:32;28.70;94.70
11126;DHT22;5617;54.046;10.676;2022-08-25T13:19:40;28.60;94.70
11126;DHT22;5617;54.046;10.676;2022-08-25T13:21:48;28.60;94.60
11126;DHT22;5617;54.046;10.676;2022-08-25T13:23:59;28.30;94.70
11126;DHT22;5617;54.046;10.676;2022-08-25T13:26:08;28.40;94.70
11126;DHT22;5617;54.046;10.676;2022-08-25T13:28:26;28.40;94.90
11126;DHT22;5617;54.046;10.676;2022-08-25T13:30:36;28.50;94.70
11126;DHT22;5617;54.046;10.676;2022-08-25T13:32:44;28.50;94.80
11126;DHT22;5617;54.046;10.676;2022-08-25T13:35:07;28.40;94.80
11126;DHT22;5617;54.046;10.676;2022-08-25T13:37:18;28.40;94.70
11126;DHT22;5617;54.046;10.676;2022-08-25T13:39:38;28.40;94.50
11126;DHT22;5617;54.046;10.676;2022-08-25T13:41:48;28.30;94.70
11126;DHT22;5617;54.046;10.676;2022-08-25T13:43:56;28.20;94.80
11126;DHT22;5617;54.046;10.676;2022-08-25T13:46:05;28.00;94.90
11126;DHT22;5617;54.046;10.676;2022-08-25T13:48:29;27.90;95.20
11126;DHT22;5617;54.046;10.676;2022-08-25T13:50:38;28.10;95.30
11126;DHT22;5617;54.046;10.676;2022-08-25T13:52:49;28.10;95.10
11126;DHT22;5617;54.046;10.676;2022-08-25T13:54:58;28.20;95.10